createdAt,value
2017-09-23T00:00:57.064Z,3.37
2017-09-23T00:03:28.772Z,3.65
2017-09-23T00:06:00.362Z,3.87
2017-09-23T00:08:32.240Z,4.40
2017-09-23T00:11:04.633Z,3.85
2017-09-23T00:13:36.462Z,3.50
2017-09-23T00:16:08.130Z,4.00
2017-09-23T00:18:39.729Z,3.80
2017-09-23T00:21:12.791Z,3.13
2017-09-23T00:23:44.533Z,3.87
2017-09-23T00:26:16.424Z,4.13
2017-09-23T00:28:47.866Z,5.07
2017-09-23T00:31:19.985Z,3.67
2017-09-23T00:33:51.008Z,3.50
2017-09-23T00:36:23.564Z,3.90
2017-09-23T00:38:55.319Z,3.60
2017-09-23T00:41:27.717Z,3.45
2017-09-23T00:43:59.970Z,3.23
2017-09-23T00:46:31.606Z,3.67
2017-09-23T00:49:02.292Z,5.17
2017-09-23T00:51:34.663Z,3.92
2017-09-23T00:54:08.518Z,4.17
2017-09-23T00:56:41.056Z,3.63
2017-09-23T00:59:12.185Z,3.80
2017-09-23T01:01:46.109Z,4.80
2017-09-23T01:04:18.604Z,4.50
2017-09-23T01:06:50.555Z,5.33
2017-09-23T01:09:19.053Z,3.63
2017-09-23T01:11:50.456Z,3.87
2017-09-23T01:14:22.172Z,4.17
2017-09-23T01:16:53.893Z,3.80
2017-09-23T01:19:26.069Z,3.45
2017-09-23T01:21:59.424Z,4.43
2017-09-23T01:24:31.317Z,3.23
2017-09-23T01:27:03.423Z,4.50
2017-09-23T01:29:35.707Z,3.65
2017-09-23T01:32:07.512Z,3.83
2017-09-23T01:34:38.455Z,3.77
2017-09-23T01:37:09.836Z,3.57
2017-09-23T01:39:41.734Z,4.17
2017-09-23T01:42:14.095Z,3.73
2017-09-23T01:44:46.788Z,3.40
2017-09-23T01:47:18.444Z,4.40
2017-09-23T01:49:50.123Z,3.40
2017-09-23T01:52:23.588Z,3.90
2017-09-23T01:54:55.321Z,3.40
2017-09-23T01:57:27.839Z,4.40
2017-09-23T01:59:59.363Z,4.60
2017-09-23T02:02:32.136Z,4.03
2017-09-23T02:05:04.439Z,4.40
2017-09-23T02:07:36.069Z,3.92
2017-09-23T02:10:08.494Z,3.70
2017-09-23T02:12:40.235Z,4.03
2017-09-23T02:15:12.152Z,4.43
2017-09-23T02:17:44.505Z,3.70
2017-09-23T02:20:16.218Z,4.50
2017-09-23T02:22:47.919Z,3.85
2017-09-23T02:25:19.538Z,4.40
2017-09-23T02:27:51.300Z,3.67
2017-09-23T02:30:23.100Z,4.20
2017-09-23T02:32:55.541Z,5.10
2017-09-23T02:35:27.008Z,4.93
2017-09-23T02:37:58.937Z,4.77
2017-09-23T02:40:31.415Z,3.90
2017-09-23T02:43:03.604Z,3.70
2017-09-23T02:45:35.264Z,3.87
2017-09-23T02:48:03.836Z,4.37
2017-09-23T02:50:35.444Z,4.40
2017-09-23T02:53:08.031Z,3.50
2017-09-23T02:55:37.191Z,3.83
2017-09-23T02:58:08.455Z,4.20
2017-09-23T03:00:40.054Z,3.73
2017-09-23T03:03:12.849Z,4.97
2017-09-23T03:05:45.386Z,5.50
2017-09-23T03:08:17.006Z,4.87
2017-09-23T03:10:48.492Z,5.20
2017-09-23T03:13:18.134Z,4.70
2017-09-23T03:15:50.519Z,5.87
2017-09-23T03:18:22.769Z,5.07
2017-09-23T03:20:54.969Z,5.20
2017-09-23T03:23:27.532Z,3.90
2017-09-23T03:25:59.530Z,4.50
2017-09-23T03:28:31.218Z,5.17
2017-09-23T03:31:01.632Z,4.00
2017-09-23T03:33:34.246Z,3.75
2017-09-23T03:36:06.755Z,3.80
2017-09-23T03:38:38.976Z,5.70
2017-09-23T03:41:10.589Z,6.10
2017-09-23T03:43:42.499Z,4.62
2017-09-23T03:46:14.411Z,6.93
2017-09-23T03:48:46.609Z,6.50
2017-09-23T03:51:19.023Z,7.70
2017-09-23T03:53:50.894Z,7.67
2017-09-23T03:56:22.603Z,8.17
2017-09-23T03:58:54.303Z,10.80
2017-09-23T04:01:27.521Z,9.77
2017-09-23T04:04:00.703Z,12.70
2017-09-23T04:06:32.158Z,10.67
2017-09-23T04:09:03.788Z,10.20
2017-09-23T04:11:35.543Z,6.97
2017-09-23T04:14:07.934Z,11.60
2017-09-23T04:16:39.699Z,7.57
2017-09-23T04:19:10.960Z,7.50
2017-09-23T04:21:43.250Z,6.87
2017-09-23T04:24:15.693Z,9.18
2017-09-23T04:26:47.535Z,6.00
2017-09-23T04:29:19.813Z,7.23
2017-09-23T04:31:51.527Z,6.30
2017-09-23T04:34:24.129Z,8.13
2017-09-23T04:36:55.844Z,7.20
2017-09-23T04:39:25.373Z,6.60
2017-09-23T04:41:57.062Z,10.77
2017-09-23T04:44:30.776Z,8.83
2017-09-23T04:47:02.722Z,8.27
2017-09-23T04:49:34.488Z,8.17
2017-09-23T04:52:06.998Z,7.27
2017-09-23T04:54:39.357Z,8.57
2017-09-23T04:57:10.675Z,7.10
2017-09-23T04:59:42.342Z,9.00
2017-09-23T05:02:10.823Z,8.07
2017-09-23T05:04:42.770Z,7.60
2017-09-23T05:07:14.449Z,7.87
2017-09-23T05:09:46.020Z,7.78
2017-09-23T05:12:15.551Z,6.13
2017-09-23T05:14:47.930Z,7.73
2017-09-23T05:17:19.362Z,6.33
2017-09-23T05:19:51.081Z,9.57
2017-09-23T05:22:22.653Z,7.77
2017-09-23T05:24:53.082Z,9.47
2017-09-23T05:27:25.017Z,7.60
2017-09-23T05:29:57.589Z,7.63
2017-09-23T05:32:31.193Z,6.40
2017-09-23T05:35:05.310Z,6.93
2017-09-23T05:37:35.062Z,6.53
2017-09-23T05:40:06.555Z,7.00
2017-09-23T05:42:37.955Z,6.90
2017-09-23T05:45:10.545Z,7.20
2017-09-23T05:47:43.072Z,7.43
2017-09-23T05:50:13.410Z,8.00
2017-09-23T05:52:45.479Z,7.00
2017-09-23T05:55:18.655Z,8.30
2017-09-23T05:57:51.596Z,7.25
2017-09-23T06:00:23.500Z,6.00
2017-09-23T06:02:54.980Z,7.20
2017-09-23T06:05:27.923Z,5.87
2017-09-23T06:07:59.566Z,6.10
2017-09-23T06:10:31.255Z,5.13
2017-09-23T06:13:02.298Z,6.78
2017-09-23T06:15:34.086Z,8.13
2017-09-23T06:18:06.372Z,6.13
2017-09-23T06:20:38.688Z,5.77
2017-09-23T06:23:10.101Z,4.93
2017-09-23T06:25:42.423Z,5.20
2017-09-23T06:28:14.246Z,5.47
2017-09-23T06:30:46.815Z,6.80
2017-09-23T06:33:18.993Z,6.00
2017-09-23T06:35:51.980Z,5.70
2017-09-23T06:38:23.643Z,5.13
2017-09-23T06:40:55.301Z,5.40
2017-09-23T06:43:26.464Z,5.65
2017-09-23T06:45:58.952Z,5.30
2017-09-23T06:48:30.498Z,5.10
2017-09-23T06:50:59.630Z,6.40
2017-09-23T06:53:31.234Z,6.80
2017-09-23T06:55:59.719Z,5.00
2017-09-23T06:58:28.102Z,5.63
2017-09-23T07:00:56.413Z,6.93
2017-09-23T07:03:24.736Z,5.73
2017-09-23T07:05:53.862Z,6.05
2017-09-23T07:08:22.315Z,7.37
2017-09-23T07:10:51.409Z,5.87
2017-09-23T07:13:20.822Z,5.00
2017-09-23T07:15:49.935Z,6.57
2017-09-23T07:18:18.259Z,7.23
2017-09-23T07:20:46.642Z,6.25
2017-09-23T07:23:14.957Z,6.20
2017-09-23T07:25:44.086Z,6.37
2017-09-23T07:28:12.426Z,5.47
2017-09-23T07:30:41.526Z,6.23
2017-09-23T07:33:10.615Z,6.83
2017-09-23T07:35:39.737Z,6.90
2017-09-23T07:38:08.831Z,7.00
2017-09-23T07:40:37.926Z,6.30
2017-09-23T07:43:07.050Z,7.23
2017-09-23T07:45:36.617Z,6.60
2017-09-23T07:48:04.938Z,8.40
2017-09-23T07:50:33.423Z,8.30
2017-09-23T07:53:01.792Z,7.30
2017-09-23T07:55:30.123Z,6.70
2017-09-23T07:57:58.478Z,6.70
2017-09-23T08:00:26.898Z,6.33
2017-09-23T08:02:55.247Z,10.47
2017-09-23T08:05:23.603Z,9.30
2017-09-23T08:07:51.931Z,8.63
2017-09-23T08:10:20.282Z,7.00
2017-09-23T08:12:48.615Z,8.23
2017-09-23T08:15:17.711Z,11.30
2017-09-23T08:17:47.328Z,10.32
2017-09-23T08:20:16.778Z,11.38
2017-09-23T08:22:45.928Z,11.30
2017-09-23T08:25:15.046Z,12.50
2017-09-23T08:27:43.371Z,12.05
2017-09-23T08:30:11.694Z,11.80
2017-09-23T08:32:40.819Z,13.13
2017-09-23T08:35:09.138Z,13.77
2017-09-23T08:37:38.415Z,13.43
2017-09-23T08:40:06.777Z,13.93
2017-09-23T08:42:35.111Z,13.03
2017-09-23T08:45:03.467Z,13.10
2017-09-23T08:47:31.794Z,15.50
2017-09-23T08:50:00.890Z,14.93
2017-09-23T08:52:30.021Z,20.00
2017-09-23T08:54:58.398Z,15.07
2017-09-23T08:57:26.725Z,15.30
2017-09-23T08:59:55.077Z,13.73
2017-09-23T09:02:23.405Z,15.57
2017-09-23T09:04:52.509Z,14.70
2017-09-23T09:07:20.867Z,15.57
2017-09-23T09:09:49.203Z,13.55
2017-09-23T09:12:17.558Z,15.10
2017-09-23T09:14:45.883Z,14.23
2017-09-23T09:17:14.206Z,13.60
2017-09-23T09:19:43.325Z,15.27
2017-09-23T09:22:11.645Z,13.87
2017-09-23T09:24:39.969Z,14.97
2017-09-23T09:27:08.332Z,12.97
2017-09-23T09:29:38.699Z,14.27
2017-09-23T09:32:07.027Z,14.47
2017-09-23T09:34:36.153Z,12.90
2017-09-23T09:37:05.245Z,12.27
2017-09-23T09:39:34.334Z,14.90
2017-09-23T09:42:03.452Z,15.13
2017-09-23T09:44:31.805Z,13.40
2017-09-23T09:47:00.908Z,14.17
2017-09-23T09:49:30.022Z,12.87
2017-09-23T09:51:58.353Z,13.83
2017-09-23T09:54:26.711Z,14.00
2017-09-23T09:56:55.034Z,12.60
2017-09-23T09:59:23.368Z,14.13
2017-09-23T10:01:51.730Z,13.52
2017-09-23T10:04:20.054Z,16.50
2017-09-23T10:06:48.386Z,14.50
2017-09-23T10:09:16.738Z,15.20
2017-09-23T10:11:45.072Z,14.07
2017-09-23T10:14:13.422Z,15.53
2017-09-23T10:16:42.521Z,12.63
2017-09-23T10:19:11.610Z,15.67
2017-09-23T10:21:40.726Z,13.93
2017-09-23T10:24:09.054Z,13.67
2017-09-23T10:26:37.421Z,14.07
2017-09-23T10:29:05.746Z,14.97
2017-09-23T10:31:34.834Z,15.10
2017-09-23T10:34:03.187Z,14.70
2017-09-23T10:36:31.518Z,13.63
2017-09-23T10:38:59.912Z,13.77
2017-09-23T10:41:28.266Z,13.20
2017-09-23T10:43:57.743Z,12.50
2017-09-23T10:46:26.099Z,13.77
2017-09-23T10:48:54.434Z,12.83
2017-09-23T10:51:23.562Z,13.30
2017-09-23T10:53:51.899Z,14.80
2017-09-23T10:56:20.255Z,12.43
2017-09-23T10:58:48.594Z,15.80
2017-09-23T11:01:16.947Z,11.73
2017-09-23T11:03:46.058Z,12.50
2017-09-23T11:06:14.390Z,12.93
2017-09-23T11:08:42.746Z,13.57
2017-09-23T11:11:11.088Z,13.10
2017-09-23T11:13:40.188Z,12.23
2017-09-23T11:16:09.315Z,14.70
2017-09-23T11:18:37.663Z,12.80
2017-09-23T11:21:06.772Z,12.47
2017-09-23T11:23:36.000Z,12.30
2017-09-23T11:26:04.380Z,12.17
2017-09-23T11:28:32.739Z,12.50
2017-09-23T11:31:01.084Z,12.40
2017-09-23T11:33:29.467Z,11.70
2017-09-23T11:35:57.923Z,10.93
2017-09-23T11:38:26.294Z,11.70
2017-09-23T11:40:54.627Z,13.87
2017-09-23T11:43:23.729Z,11.57
2017-09-23T11:45:52.863Z,10.85
2017-09-23T11:48:21.204Z,11.20
2017-09-23T11:50:50.333Z,10.53
2017-09-23T11:53:18.683Z,13.20
2017-09-23T11:55:47.818Z,11.10
2017-09-23T11:58:16.152Z,12.50
2017-09-23T12:00:44.492Z,10.77
2017-09-23T12:03:12.855Z,10.30
2017-09-23T12:05:41.191Z,10.60
2017-09-23T12:08:10.311Z,9.70
2017-09-23T12:10:39.440Z,9.50
2017-09-23T12:13:07.776Z,10.23
2017-09-23T12:15:36.876Z,11.40
2017-09-23T12:18:06.011Z,12.87
2017-09-23T12:20:34.346Z,12.00
2017-09-23T12:23:03.459Z,11.40
2017-09-23T12:25:32.595Z,10.77
2017-09-23T12:28:00.932Z,11.93
2017-09-23T12:30:30.031Z,9.63
2017-09-23T12:32:59.160Z,9.13
2017-09-23T12:35:27.492Z,8.60
2017-09-23T12:37:55.866Z,8.95
2017-09-23T12:40:24.238Z,11.10
2017-09-23T12:42:52.578Z,10.30
2017-09-23T12:45:20.911Z,11.00
2017-09-23T12:47:49.279Z,12.07
2017-09-23T12:50:17.613Z,10.77
2017-09-23T12:52:45.971Z,10.30
2017-09-23T12:55:15.068Z,9.47
2017-09-23T12:57:44.183Z,9.63
2017-09-23T13:00:12.515Z,10.57
2017-09-23T13:02:40.917Z,10.03
2017-09-23T13:05:09.259Z,11.63
2017-09-23T13:07:37.630Z,10.80
2017-09-23T13:10:05.995Z,10.53
2017-09-23T13:12:34.321Z,12.83
2017-09-23T13:15:02.679Z,10.23
2017-09-23T13:17:31.080Z,10.20
2017-09-23T13:19:59.415Z,9.02
2017-09-23T13:22:27.750Z,8.60
2017-09-23T13:24:56.208Z,10.13
2017-09-23T13:27:24.592Z,9.67
2017-09-23T13:29:52.972Z,10.30
2017-09-23T13:32:21.335Z,11.47
2017-09-23T13:34:49.684Z,10.47
2017-09-23T13:37:18.785Z,12.53
2017-09-23T13:39:47.949Z,11.20
2017-09-23T13:42:16.288Z,10.53
2017-09-23T13:44:44.665Z,10.85
2017-09-23T13:47:13.039Z,11.13
2017-09-23T13:49:41.372Z,10.00
2017-09-23T13:52:11.241Z,10.60
2017-09-23T13:54:39.576Z,9.53
2017-09-23T13:57:07.914Z,9.47
2017-09-23T13:59:36.274Z,9.50
2017-09-23T14:02:04.609Z,9.68
2017-09-23T14:04:32.941Z,9.07
2017-09-23T14:07:01.308Z,10.60
2017-09-23T14:09:29.648Z,14.27
2017-09-23T14:11:57.984Z,10.80
2017-09-23T14:14:26.345Z,10.80
2017-09-23T14:16:54.707Z,9.93
2017-09-23T14:19:23.804Z,13.07
2017-09-23T14:21:52.903Z,10.23
2017-09-23T14:24:22.026Z,9.17
2017-09-23T14:26:50.385Z,8.20
2017-09-23T14:29:19.487Z,9.00
2017-09-23T14:31:48.586Z,10.68
2017-09-23T14:34:17.717Z,9.57
2017-09-23T14:36:46.059Z,10.73
2017-09-23T14:39:15.193Z,9.40
2017-09-23T14:41:43.525Z,9.87
2017-09-23T14:44:11.881Z,10.10
2017-09-23T14:46:40.256Z,10.70
2017-09-23T14:49:08.586Z,11.03
2017-09-23T14:51:36.925Z,10.13
2017-09-23T14:54:05.282Z,9.90
2017-09-23T14:56:33.619Z,11.40
2017-09-23T14:59:02.736Z,9.90
2017-09-23T15:01:31.070Z,9.83
2017-09-23T15:03:59.412Z,10.90
2017-09-23T15:06:27.772Z,12.33
2017-09-23T15:08:56.143Z,10.73
2017-09-23T15:11:25.249Z,13.13
2017-09-23T15:13:53.610Z,15.75
2017-09-23T15:16:22.708Z,17.57
2017-09-23T15:18:51.806Z,17.23
2017-09-23T15:21:20.939Z,14.57
2017-09-23T15:23:49.285Z,18.87
2017-09-23T15:26:18.406Z,18.67
2017-09-23T15:28:46.744Z,16.30
2017-09-23T15:31:15.119Z,17.43
2017-09-23T15:33:43.459Z,16.47
2017-09-23T15:36:11.805Z,16.97
2017-09-23T15:38:40.929Z,18.20
2017-09-23T15:41:09.276Z,16.17
2017-09-23T15:43:38.402Z,17.23
2017-09-23T15:46:06.751Z,15.83
2017-09-23T15:48:35.120Z,14.20
2017-09-23T15:51:03.468Z,17.03
2017-09-23T15:53:31.804Z,18.30
2017-09-23T15:56:00.944Z,15.20
2017-09-23T15:58:29.286Z,16.03
2017-09-23T16:00:58.427Z,18.20
2017-09-23T16:03:26.759Z,15.27
2017-09-23T16:05:55.859Z,16.60
2017-09-23T16:08:24.989Z,14.40
2017-09-23T16:10:53.325Z,15.80
2017-09-23T16:13:21.662Z,16.43
2017-09-23T16:15:50.022Z,16.43
2017-09-23T16:18:18.363Z,16.57
2017-09-23T16:20:46.728Z,16.53
2017-09-23T16:23:15.073Z,17.07
2017-09-23T16:25:43.431Z,19.73
2017-09-23T16:28:11.773Z,17.23
2017-09-23T16:30:40.141Z,18.90
2017-09-23T16:33:08.479Z,17.07
2017-09-23T16:35:36.811Z,17.90
2017-09-23T16:38:05.172Z,19.20
2017-09-23T16:40:33.515Z,18.50
2017-09-23T16:43:01.879Z,18.10
2017-09-23T16:45:30.977Z,18.63
2017-09-23T16:48:00.076Z,19.75
2017-09-23T16:50:29.216Z,20.90
2017-09-23T16:52:57.559Z,20.17
2017-09-23T16:55:26.692Z,19.53
2017-09-23T16:57:55.031Z,20.85
2017-09-23T17:00:24.131Z,17.60
2017-09-23T17:02:53.257Z,21.70
2017-09-23T17:05:21.595Z,18.73
2017-09-23T17:07:51.439Z,20.83
2017-09-23T17:10:20.574Z,21.40
2017-09-23T17:12:48.927Z,22.20
2017-09-23T17:15:17.317Z,21.80
2017-09-23T17:17:45.663Z,20.53
2017-09-23T17:20:14.764Z,20.30
2017-09-23T17:22:43.896Z,22.80
2017-09-23T17:25:12.240Z,21.73
2017-09-23T17:27:41.339Z,20.10
2017-09-23T17:30:10.464Z,22.47
2017-09-23T17:32:38.803Z,19.67
2017-09-23T17:35:07.151Z,22.47
2017-09-23T17:37:35.520Z,21.57
2017-09-23T17:40:03.872Z,22.62
2017-09-23T17:42:32.207Z,23.20
2017-09-23T17:45:00.567Z,19.73
2017-09-23T17:47:28.897Z,23.10
2017-09-23T17:49:58.005Z,22.07
2017-09-23T17:52:27.233Z,21.90
2017-09-23T17:54:55.563Z,21.87
2017-09-23T17:57:23.967Z,23.97
2017-09-23T17:59:54.350Z,21.27
2017-09-23T18:02:22.680Z,19.90
2017-09-23T18:04:51.011Z,21.07
2017-09-23T18:07:19.367Z,19.20
2017-09-23T18:09:47.706Z,18.37
2017-09-23T18:12:16.825Z,21.40
2017-09-23T18:14:45.181Z,19.13
2017-09-23T18:17:14.280Z,21.37
2017-09-23T18:19:43.381Z,20.37
2017-09-23T18:22:12.515Z,17.80
2017-09-23T18:24:40.843Z,18.67
2017-09-23T18:27:09.181Z,16.00
2017-09-23T18:29:39.005Z,16.13
2017-09-23T18:32:07.344Z,21.55
2017-09-23T18:34:35.685Z,17.23
2017-09-23T18:37:04.052Z,16.40
2017-09-23T18:39:35.918Z,17.13
2017-09-23T18:42:04.337Z,16.20
2017-09-23T18:44:33.581Z,15.90
2017-09-23T18:47:01.918Z,16.50
2017-09-23T18:49:31.015Z,17.90
2017-09-23T18:52:00.150Z,18.20
2017-09-23T18:54:28.510Z,16.87
2017-09-23T18:56:56.853Z,16.70
2017-09-23T18:59:25.217Z,20.30
2017-09-23T19:01:53.557Z,20.10
2017-09-23T19:04:21.896Z,23.80
2017-09-23T19:06:50.461Z,27.60
2017-09-23T19:09:18.849Z,21.93
2017-09-23T19:11:47.220Z,22.47
2017-09-23T19:14:15.623Z,18.60
2017-09-23T19:16:44.754Z,20.10
2017-09-23T19:19:13.882Z,18.03
2017-09-23T19:21:42.215Z,19.10
2017-09-23T19:24:11.314Z,18.33
2017-09-23T19:26:40.471Z,24.03
2017-09-23T19:29:08.805Z,30.20
2017-09-23T19:31:37.952Z,30.70
2017-09-23T19:34:06.395Z,28.07
2017-09-23T19:36:34.740Z,27.95
2017-09-23T19:39:03.120Z,26.70
2017-09-23T19:41:31.484Z,26.07
2017-09-23T19:43:59.831Z,25.45
2017-09-23T19:46:28.182Z,26.57
2017-09-23T19:48:57.796Z,26.40
2017-09-23T19:51:26.179Z,24.60
2017-09-23T19:53:55.311Z,22.50
2017-09-23T19:56:23.661Z,24.40
2017-09-23T19:58:52.792Z,25.50
2017-09-23T20:01:21.136Z,21.60
2017-09-23T20:03:50.260Z,21.23
2017-09-23T20:06:18.623Z,21.90
2017-09-23T20:08:46.961Z,21.73
2017-09-23T20:11:15.300Z,23.67
2017-09-23T20:13:43.664Z,23.38
2017-09-23T20:16:12.009Z,22.80
2017-09-23T20:18:40.350Z,24.33
2017-09-23T20:21:08.707Z,26.67
2017-09-23T20:23:37.047Z,22.97
2017-09-23T20:26:05.429Z,24.07
2017-09-23T20:28:33.776Z,23.83
2017-09-23T20:31:02.120Z,25.50
2017-09-23T20:33:31.251Z,28.50
2017-09-23T20:35:59.652Z,24.48
2017-09-23T20:38:28.152Z,24.07
2017-09-23T20:40:56.696Z,20.70
2017-09-23T20:43:25.036Z,23.80
2017-09-23T20:45:54.131Z,22.17
2017-09-23T20:48:23.254Z,24.40
2017-09-23T20:50:51.592Z,26.77
2017-09-23T20:53:20.237Z,24.63
2017-09-23T20:55:49.035Z,22.40
2017-09-23T20:58:17.857Z,23.40
2017-09-23T21:00:46.254Z,21.30
2017-09-23T21:03:14.687Z,20.77
2017-09-23T21:05:43.029Z,22.40
2017-09-23T21:08:12.159Z,19.73
2017-09-23T21:10:40.487Z,22.00
2017-09-23T21:13:08.827Z,20.20
2017-09-23T21:15:37.190Z,21.40
2017-09-23T21:18:06.473Z,21.35
2017-09-23T21:20:35.575Z,22.03
2017-09-23T21:23:04.706Z,19.77
2017-09-23T21:25:33.038Z,20.77
2017-09-23T21:28:02.140Z,21.30
2017-09-23T21:30:31.272Z,20.60
2017-09-23T21:32:59.607Z,24.03
2017-09-23T21:35:27.954Z,23.83
2017-09-23T21:37:56.323Z,22.87
2017-09-23T21:40:24.659Z,22.98
2017-09-23T21:42:53.799Z,20.47
2017-09-23T21:45:22.140Z,21.37
2017-09-23T21:47:51.262Z,23.23
2017-09-23T21:50:19.591Z,24.58
2017-09-23T21:52:47.932Z,21.30
2017-09-23T21:55:16.288Z,21.60
2017-09-23T21:57:45.391Z,20.13
2017-09-23T22:00:13.753Z,21.50
2017-09-23T22:02:42.879Z,28.30
2017-09-23T22:05:11.223Z,30.30
2017-09-23T22:07:39.585Z,22.83
2017-09-23T22:10:07.978Z,20.60
2017-09-23T22:12:36.336Z,24.17
2017-09-23T22:15:04.677Z,23.87
2017-09-23T22:17:33.035Z,21.87
2017-09-23T22:20:02.155Z,19.63
2017-09-23T22:22:31.378Z,22.73
2017-09-23T22:24:59.712Z,19.60
2017-09-23T22:27:28.845Z,20.40
2017-09-23T22:29:57.179Z,23.70
2017-09-23T22:32:25.519Z,21.70
2017-09-23T22:34:53.878Z,21.30
2017-09-23T22:37:22.208Z,21.77
2017-09-23T22:39:50.567Z,21.37
2017-09-23T22:42:18.899Z,22.50
2017-09-23T22:44:47.990Z,23.00
2017-09-23T22:47:17.124Z,24.20
2017-09-23T22:49:45.466Z,26.50
2017-09-23T22:52:14.563Z,21.73
2017-09-23T22:54:43.691Z,25.83
2017-09-23T22:57:12.041Z,19.43
2017-09-23T22:59:41.145Z,27.53
2017-09-23T23:02:10.272Z,20.37
2017-09-23T23:04:38.615Z,22.83
2017-09-23T23:07:07.744Z,22.80
2017-09-23T23:09:36.118Z,23.60
2017-09-23T23:12:04.477Z,18.70
2017-09-23T23:14:33.600Z,21.07
2017-09-23T23:17:01.931Z,19.17
2017-09-23T23:19:30.262Z,20.10
2017-09-23T23:21:58.623Z,20.93
2017-09-23T23:24:27.723Z,23.17
2017-09-23T23:26:56.826Z,19.97
2017-09-23T23:29:25.951Z,21.30
2017-09-23T23:31:54.278Z,22.73
2017-09-23T23:34:22.614Z,21.73
2017-09-23T23:36:50.975Z,23.80
2017-09-23T23:39:19.308Z,20.67
2017-09-23T23:41:47.654Z,21.17
2017-09-23T23:44:16.023Z,19.60
2017-09-23T23:46:44.351Z,20.00
2017-09-23T23:49:12.694Z,19.63
2017-09-23T23:51:41.046Z,17.83
2017-09-23T23:54:09.379Z,19.60
2017-09-23T23:56:37.707Z,19.17
2017-09-23T23:59:06.075Z,18.87
